Little Rock Air Force Base Jacksonville US
ICAO: KLRF
IATA: LRF
Category: Medium
Scheduled Services: No

Elevation: 311 ft
TransAlt. 18000 ft.

Airport Communications:
APP/DEP:119.5
ATIS:25.11
CLNC DEL:25.35
GND:132.8
ANG COMD POST:143.8
PMSV METRO:23.98
COMD POST:34.94
PTD:37.22
TWR:120.6

KLRF Zoom In..

Runways:

(A) RW 07 length 12000 ft width 200 ft
---- / hdg 70

(B) RW 25 length 12000 ft width 200 ft
ILS 109.90 / hdg 250

Location; KLRF
Day. 14 / Time. 13.56 Zulu
* Altimeter: 30.03
* Temperature: 23° c. 73.4°f.
* Wind from: 100° Speed 03 kn.
Dewpoint: 23° c.
Visibility: 10 Statute Miles.
Clouds: Scattered 1000 ft.
Clouds: Broken 2100 ft.
Clouds: Overcast 7000 ft.

KLRF 141356Z 10003KT 10SM SCT010 BKN021 OVC070 23/23 A3003 RMK AO2A CIG 018 RWY07 SLP169 T02290229


Wind From 100°
Speed 03 kn.

 
 
jpsmedia.com for Web Design worldairports.se 2018   terms of use